createdAt,value
2023-02-08T00:00:54.443Z,5.00
2023-02-08T00:01:54.465Z,4.50
2023-02-08T00:02:54.528Z,4.90
2023-02-08T00:03:54.648Z,4.70
2023-02-08T00:04:54.506Z,4.80
2023-02-08T00:05:54.524Z,4.90
2023-02-08T00:06:54.543Z,5.20
2023-02-08T00:07:54.553Z,4.60
2023-02-08T00:08:54.679Z,5.00
2023-02-08T00:09:54.587Z,5.00
2023-02-08T00:10:54.601Z,4.70
2023-02-08T00:11:54.622Z,4.80
2023-02-08T00:12:54.636Z,4.90
2023-02-08T00:13:54.653Z,5.00
2023-02-08T00:14:54.761Z,5.00
2023-02-08T00:15:54.753Z,5.10
2023-02-08T00:16:54.694Z,4.30
2023-02-08T00:17:54.717Z,4.60
2023-02-08T00:18:54.754Z,4.90
2023-02-08T00:19:54.741Z,4.90
2023-02-08T00:20:54.917Z,4.90
2023-02-08T00:21:54.773Z,5.00
2023-02-08T00:22:54.791Z,5.00
2023-02-08T00:23:54.815Z,4.70
2023-02-08T00:24:54.823Z,5.00
2023-02-08T00:25:54.843Z,5.00
2023-02-08T00:26:54.956Z,5.00
2023-02-08T00:27:54.894Z,5.10
2023-02-08T00:28:54.883Z,5.10
2023-02-08T00:29:54.904Z,5.00
2023-02-08T00:30:55.143Z,4.90
2023-02-08T00:31:55.141Z,5.10
2023-02-08T00:32:54.944Z,5.40
2023-02-08T00:33:54.971Z,5.30
2023-02-08T00:34:55.002Z,4.80
2023-02-08T00:35:54.992Z,5.00
2023-02-08T00:36:55.014Z,5.10
2023-02-08T00:37:55.179Z,5.30
2023-02-08T00:38:55.046Z,4.90
2023-02-08T00:39:55.060Z,5.30
2023-02-08T00:40:55.075Z,5.20
2023-02-08T00:41:55.091Z,5.10
2023-02-08T00:42:55.098Z,5.20
2023-02-08T00:43:55.226Z,5.30
2023-02-08T00:44:55.135Z,5.30
2023-02-08T00:45:55.154Z,5.30
2023-02-08T00:46:55.192Z,5.10
2023-02-08T00:47:55.191Z,5.00
2023-02-08T00:48:55.201Z,4.90
2023-02-08T00:49:55.311Z,5.00
2023-02-08T00:50:55.245Z,5.40
2023-02-08T00:51:55.246Z,4.90
2023-02-08T00:52:55.263Z,5.10
2023-02-08T00:53:55.280Z,5.00
2023-02-08T00:54:55.295Z,5.00
2023-02-08T00:55:55.462Z,5.20
2023-02-08T00:56:55.319Z,5.00
2023-02-08T00:57:55.352Z,5.40
2023-02-08T00:58:55.355Z,5.10
2023-02-08T00:59:55.366Z,5.00
2023-02-08T01:00:55.456Z,5.10
2023-02-08T01:01:55.558Z,5.00
2023-02-08T01:02:55.439Z,4.90
2023-02-08T01:03:55.429Z,5.20
2023-02-08T01:04:55.455Z,5.00
2023-02-08T01:05:55.469Z,5.00
2023-02-08T01:06:55.656Z,5.20
2023-02-08T01:07:55.492Z,4.80
2023-02-08T01:08:55.509Z,4.80
2023-02-08T01:09:55.525Z,4.80
2023-02-08T01:10:55.548Z,4.70
2023-02-08T01:11:55.565Z,4.80
2023-02-08T01:12:55.854Z,5.00
2023-02-08T01:13:55.593Z,4.70
2023-02-08T01:14:55.617Z,5.00
2023-02-08T01:15:55.650Z,4.80
2023-02-08T01:16:55.643Z,4.60
2023-02-08T01:17:55.770Z,4.80
2023-02-08T01:18:55.684Z,4.70
2023-02-08T01:19:55.681Z,4.90
2023-02-08T01:20:55.699Z,4.80
2023-02-08T01:21:55.718Z,4.70
2023-02-08T01:22:55.747Z,5.10
2023-02-08T01:23:55.844Z,4.90
2023-02-08T01:24:55.766Z,4.80
2023-02-08T01:25:55.783Z,4.60
2023-02-08T01:26:55.799Z,4.60
2023-02-08T01:27:55.829Z,4.60
2023-02-08T01:28:55.824Z,4.40
2023-02-08T01:29:55.846Z,4.70
2023-02-08T01:30:55.921Z,4.60
2023-02-08T01:31:55.871Z,4.40
2023-02-08T01:32:55.889Z,4.40
2023-02-08T01:33:55.910Z,4.60
2023-02-08T01:34:56.018Z,4.40
2023-02-08T01:35:55.932Z,4.70
2023-02-08T01:36:55.950Z,4.50
2023-02-08T01:37:55.972Z,4.40
2023-02-08T01:38:55.999Z,4.50
2023-02-08T01:39:56.007Z,4.40
2023-02-08T01:40:56.113Z,4.80
2023-02-08T01:41:56.034Z,4.40
2023-02-08T01:42:56.057Z,4.40
2023-02-08T01:43:56.071Z,4.60
2023-02-08T01:44:56.076Z,4.40
2023-02-08T01:45:56.115Z,4.70
2023-02-08T01:46:56.208Z,4.40
2023-02-08T01:47:56.121Z,4.40
2023-02-08T01:48:56.145Z,4.40
2023-02-08T01:49:56.160Z,4.40
2023-02-08T01:50:56.175Z,4.00
2023-02-08T01:51:56.193Z,4.20
2023-02-08T01:52:56.301Z,4.30
2023-02-08T01:53:56.214Z,4.30
2023-02-08T01:54:56.263Z,4.50
2023-02-08T01:55:56.262Z,4.60
2023-02-08T01:56:56.262Z,4.20
2023-02-08T01:57:56.286Z,4.30
2023-02-08T01:58:56.401Z,4.40
2023-02-08T01:59:56.316Z,4.10
2023-02-08T02:00:56.404Z,3.90
2023-02-08T02:01:56.344Z,3.90
2023-02-08T02:02:56.356Z,4.00
2023-02-08T02:03:56.381Z,4.30
2023-02-08T02:04:56.487Z,4.40
2023-02-08T02:05:56.402Z,4.50
2023-02-08T02:06:56.428Z,4.20
2023-02-08T02:07:56.444Z,4.10
2023-02-08T02:08:56.458Z,3.90
2023-02-08T02:09:56.465Z,4.30
2023-02-08T02:10:56.609Z,4.60
2023-02-08T02:11:56.520Z,4.00
2023-02-08T02:12:56.513Z,4.10
2023-02-08T02:13:56.527Z,4.20
2023-02-08T02:14:56.550Z,4.50
2023-02-08T02:15:56.671Z,4.30
2023-02-08T02:16:56.578Z,4.00
2023-02-08T02:17:56.596Z,4.30
2023-02-08T02:18:56.605Z,3.90
2023-02-08T02:19:56.624Z,4.00
2023-02-08T02:20:56.647Z,4.40
2023-02-08T02:21:56.753Z,4.10
2023-02-08T02:22:56.745Z,4.00
2023-02-08T02:23:56.684Z,4.10
2023-02-08T02:24:56.708Z,4.00
2023-02-08T02:25:56.718Z,4.00
2023-02-08T02:26:56.750Z,4.10
2023-02-08T02:27:56.890Z,4.00
2023-02-08T02:28:56.764Z,4.00
2023-02-08T02:29:56.796Z,4.00
2023-02-08T02:30:56.893Z,4.00
2023-02-08T02:31:56.939Z,4.20
2023-02-08T02:32:56.835Z,4.00
2023-02-08T02:33:56.943Z,3.70
2023-02-08T02:34:56.889Z,4.10
2023-02-08T02:35:56.871Z,3.80
2023-02-08T02:36:56.890Z,4.10
2023-02-08T02:37:56.909Z,4.00
2023-02-08T02:38:56.919Z,4.00
2023-02-08T02:39:57.043Z,4.10
2023-02-08T02:40:56.951Z,3.90
2023-02-08T02:41:56.980Z,3.90
2023-02-08T02:42:57.009Z,3.80
2023-02-08T02:43:56.998Z,3.70
2023-02-08T02:44:57.023Z,4.10
2023-02-08T02:45:57.195Z,4.00
2023-02-08T02:46:57.055Z,3.90
2023-02-08T02:47:57.070Z,3.60
2023-02-08T02:48:57.086Z,3.80
2023-02-08T02:49:57.094Z,3.80
2023-02-08T02:50:57.111Z,3.80
2023-02-08T02:51:57.234Z,3.80
2023-02-08T02:52:57.152Z,3.90
2023-02-08T02:53:57.166Z,3.90
2023-02-08T02:54:57.192Z,3.90
2023-02-08T02:55:57.193Z,3.60
2023-02-08T02:56:57.217Z,3.90
2023-02-08T02:57:57.331Z,3.60
2023-02-08T02:58:57.258Z,3.70
2023-02-08T02:59:57.254Z,3.80
2023-02-08T03:00:57.275Z,3.80
2023-02-08T03:01:57.285Z,3.70
2023-02-08T03:02:57.310Z,3.70
2023-02-08T03:03:57.461Z,3.80
2023-02-08T03:04:57.414Z,3.60
2023-02-08T03:05:57.357Z,3.80
2023-02-08T03:06:57.366Z,3.70
2023-02-08T03:07:57.384Z,3.80
2023-02-08T03:08:57.403Z,3.80
2023-02-08T03:09:57.569Z,3.80
2023-02-08T03:10:57.434Z,3.50
2023-02-08T03:11:57.443Z,3.70
2023-02-08T03:12:57.468Z,3.60
2023-02-08T03:13:58.083Z,4.00
2023-02-08T03:14:57.517Z,3.80
2023-02-08T03:15:57.613Z,3.60
2023-02-08T03:16:57.534Z,3.70
2023-02-08T03:17:57.537Z,3.70
2023-02-08T03:18:57.559Z,3.50
2023-02-08T03:19:57.569Z,3.80
2023-02-08T03:20:57.584Z,3.60
2023-02-08T03:21:57.707Z,3.50
2023-02-08T03:22:57.625Z,3.50
2023-02-08T03:23:57.635Z,3.70
2023-02-08T03:24:57.670Z,3.50
2023-02-08T03:25:57.664Z,3.80
2023-02-08T03:26:57.779Z,3.60
2023-02-08T03:27:57.801Z,3.60
2023-02-08T03:28:57.711Z,3.70
2023-02-08T03:29:57.731Z,3.60
2023-02-08T03:30:57.840Z,3.70
2023-02-08T03:31:57.863Z,3.40
2023-02-08T03:32:57.871Z,3.50
2023-02-08T03:33:57.791Z,3.50
2023-02-08T03:34:57.816Z,3.80
2023-02-08T03:35:57.818Z,3.50
2023-02-08T03:36:57.840Z,3.40
2023-02-08T03:37:57.858Z,3.50
2023-02-08T03:38:57.972Z,3.50
2023-02-08T03:39:57.881Z,3.60
2023-02-08T03:40:57.900Z,3.50
2023-02-08T03:41:57.912Z,3.70
2023-02-08T03:42:57.939Z,3.30
2023-02-08T03:43:57.962Z,3.40
2023-02-08T03:44:58.068Z,3.40
2023-02-08T03:45:58.011Z,3.40
2023-02-08T03:46:58.011Z,3.50
2023-02-08T03:47:58.006Z,3.60
2023-02-08T03:48:58.030Z,3.50
2023-02-08T03:49:58.044Z,3.40
2023-02-08T03:50:58.161Z,3.50
2023-02-08T03:51:58.071Z,3.50
2023-02-08T03:52:58.086Z,3.70
2023-02-08T03:53:58.098Z,3.40
2023-02-08T03:54:58.114Z,3.70
2023-02-08T03:55:58.138Z,3.30
2023-02-08T03:56:58.253Z,3.30
2023-02-08T03:57:58.162Z,3.40
2023-02-08T03:58:58.183Z,3.50
2023-02-08T03:59:58.189Z,3.30
2023-02-08T04:00:58.216Z,3.40
2023-02-08T04:01:58.228Z,3.20
2023-02-08T04:02:58.364Z,3.40
2023-02-08T04:03:58.259Z,3.40
2023-02-08T04:04:58.273Z,3.50
2023-02-08T04:05:58.291Z,3.20
2023-02-08T04:06:58.305Z,3.20
2023-02-08T04:07:58.322Z,3.20
2023-02-08T04:08:58.436Z,3.30
2023-02-08T04:09:58.356Z,3.30
2023-02-08T04:10:58.359Z,3.50
2023-02-08T04:11:58.382Z,3.20
2023-02-08T04:12:58.408Z,3.10
2023-02-08T04:13:58.412Z,3.50
2023-02-08T04:14:58.557Z,3.50
2023-02-08T04:15:58.618Z,3.10
2023-02-08T04:16:58.497Z,3.30
2023-02-08T04:17:58.494Z,3.20
2023-02-08T04:18:58.512Z,3.30
2023-02-08T04:19:58.502Z,3.10
2023-02-08T04:20:58.616Z,3.30
2023-02-08T04:21:58.570Z,3.30
2023-02-08T04:22:58.587Z,3.20
2023-02-08T04:23:58.566Z,3.10
2023-02-08T04:24:58.577Z,3.10
2023-02-08T04:25:58.590Z,3.10
2023-02-08T04:26:58.718Z,3.40
2023-02-08T04:27:58.661Z,3.40
2023-02-08T04:28:58.652Z,3.30
2023-02-08T04:29:58.655Z,3.40
2023-02-08T04:30:58.798Z,3.20
2023-02-08T04:31:58.849Z,3.30
2023-02-08T04:32:58.703Z,3.30
2023-02-08T04:33:58.732Z,3.20
2023-02-08T04:34:58.758Z,3.10
2023-02-08T04:35:58.761Z,3.50
2023-02-08T04:36:58.767Z,3.30
2023-02-08T04:37:58.882Z,3.00
2023-02-08T04:38:58.805Z,3.20
2023-02-08T04:39:58.813Z,3.10
2023-02-08T04:40:58.831Z,3.00
2023-02-08T04:41:58.844Z,3.20
2023-02-08T04:42:58.867Z,3.10
2023-02-08T04:43:58.983Z,2.90
2023-02-08T04:44:58.893Z,3.00
2023-02-08T04:45:58.918Z,2.90
2023-02-08T04:46:58.932Z,3.10
2023-02-08T04:47:59.237Z,3.00
2023-02-08T04:48:59.207Z,3.30
2023-02-08T04:49:59.084Z,2.80
2023-02-08T04:50:59.004Z,2.90
2023-02-08T04:51:59.004Z,3.10
2023-02-08T04:52:59.020Z,3.10
2023-02-08T04:53:59.037Z,3.00
2023-02-08T04:54:59.062Z,3.10
2023-02-08T04:55:59.173Z,3.00
2023-02-08T04:56:59.087Z,2.90
2023-02-08T04:57:59.093Z,2.80
2023-02-08T04:58:59.118Z,2.80
2023-02-08T05:00:00.417Z,2.80
2023-02-08T05:00:59.141Z,3.10
2023-02-08T05:01:59.305Z,3.00
2023-02-08T05:02:59.180Z,2.90
2023-02-08T05:03:59.192Z,3.10
2023-02-08T05:04:59.218Z,3.10
2023-02-08T05:05:59.215Z,3.20
2023-02-08T05:06:59.251Z,3.20
2023-02-08T05:07:59.356Z,3.00
2023-02-08T05:08:59.270Z,3.00
2023-02-08T05:09:59.286Z,3.50
2023-02-08T05:10:59.299Z,3.40
2023-02-08T05:11:59.309Z,3.50
2023-02-08T05:12:59.331Z,3.30
2023-02-08T05:13:59.448Z,3.50
2023-02-08T05:14:59.354Z,3.30
2023-02-08T05:15:59.417Z,3.60
2023-02-08T05:16:59.392Z,3.30
2023-02-08T05:17:59.399Z,3.40
2023-02-08T05:18:59.524Z,3.50
2023-02-08T05:19:59.430Z,3.60
2023-02-08T05:20:59.447Z,3.40
2023-02-08T05:21:59.472Z,3.50
2023-02-08T05:22:59.505Z,3.60
2023-02-08T05:23:59.502Z,3.50
2023-02-08T05:24:59.608Z,3.60
2023-02-08T05:25:59.530Z,3.40
2023-02-08T05:26:59.541Z,3.60
2023-02-08T05:27:59.573Z,3.40
2023-02-08T05:28:59.570Z,3.60
2023-02-08T05:29:59.589Z,3.60
2023-02-08T05:30:59.747Z,3.60
2023-02-08T05:31:59.634Z,3.60
2023-02-08T05:32:59.638Z,3.30
2023-02-08T05:33:59.654Z,3.50
2023-02-08T05:34:59.661Z,3.30
2023-02-08T05:35:59.677Z,3.80
2023-02-08T05:36:59.850Z,3.40
2023-02-08T05:37:59.715Z,3.40
2023-02-08T05:38:59.747Z,3.40
2023-02-08T05:39:59.748Z,3.40
2023-02-08T05:40:59.754Z,3.40
2023-02-08T05:41:59.767Z,3.60
2023-02-08T05:42:59.934Z,3.30
2023-02-08T05:43:59.806Z,3.60
2023-02-08T05:44:59.825Z,3.50
2023-02-08T05:45:59.838Z,3.20
2023-02-08T05:46:59.871Z,3.60
2023-02-08T05:47:59.860Z,3.40
2023-02-08T05:48:59.981Z,3.30
2023-02-08T05:49:59.895Z,3.50
2023-02-08T05:50:59.907Z,3.50
2023-02-08T05:51:59.932Z,3.40
2023-02-08T05:52:59.936Z,3.60
2023-02-08T05:53:59.956Z,3.30
2023-02-08T05:55:00.090Z,3.40
2023-02-08T05:55:59.994Z,3.50
2023-02-08T05:56:59.997Z,3.10
2023-02-08T05:58:00.046Z,3.90
2023-02-08T05:59:00.027Z,3.40
2023-02-08T06:00:00.053Z,3.30
2023-02-08T06:01:00.159Z,3.50
2023-02-08T06:02:00.116Z,3.60
2023-02-08T06:03:00.164Z,3.30
2023-02-08T06:04:00.188Z,3.50
2023-02-08T06:05:00.140Z,3.40
2023-02-08T06:06:00.148Z,3.50
2023-02-08T06:07:00.307Z,3.10
2023-02-08T06:08:00.178Z,3.20
2023-02-08T06:09:00.181Z,3.40
2023-02-08T06:10:00.197Z,3.30
2023-02-08T06:11:00.233Z,3.30
2023-02-08T06:12:00.236Z,3.40
2023-02-08T06:13:00.345Z,3.40
2023-02-08T06:14:00.265Z,3.30
2023-02-08T06:15:00.273Z,3.30
2023-02-08T06:16:00.301Z,3.20
2023-02-08T06:17:00.316Z,3.30
2023-02-08T06:18:00.326Z,3.10
2023-02-08T06:19:00.443Z,3.20
2023-02-08T06:20:00.364Z,3.30
2023-02-08T06:21:00.374Z,3.30
2023-02-08T06:22:00.390Z,3.40
2023-02-08T06:23:00.397Z,3.20
2023-02-08T06:24:00.419Z,3.10
2023-02-08T06:25:00.542Z,3.30
2023-02-08T06:26:00.442Z,3.40
2023-02-08T06:27:00.490Z,3.30
2023-02-08T06:28:00.598Z,3.70
2023-02-08T06:29:00.489Z,3.30
2023-02-08T06:30:00.517Z,3.20
2023-02-08T06:31:00.628Z,3.20
2023-02-08T06:32:00.667Z,3.40
2023-02-08T06:33:00.555Z,3.40
2023-02-08T06:34:00.629Z,3.30
2023-02-08T06:35:00.599Z,3.40
2023-02-08T06:36:00.598Z,3.70
2023-02-08T06:37:00.723Z,3.20
2023-02-08T06:38:00.629Z,3.40
2023-02-08T06:39:00.652Z,3.50
2023-02-08T06:40:00.663Z,3.40
2023-02-08T06:41:00.688Z,3.40
2023-02-08T06:42:00.792Z,3.40
2023-02-08T06:43:00.740Z,3.50
2023-02-08T06:44:00.721Z,3.10
2023-02-08T06:45:00.751Z,3.30
2023-02-08T06:46:00.791Z,3.40
2023-02-08T06:47:00.771Z,3.30
2023-02-08T06:48:00.889Z,3.30
2023-02-08T06:49:00.801Z,3.40
2023-02-08T06:50:00.813Z,3.40
2023-02-08T06:51:00.837Z,3.30
2023-02-08T06:52:00.844Z,3.30
2023-02-08T06:53:00.861Z,3.30
2023-02-08T06:54:00.982Z,3.80
2023-02-08T06:55:00.896Z,3.50
2023-02-08T06:56:00.920Z,3.30
2023-02-08T06:57:00.924Z,3.50
2023-02-08T06:58:00.949Z,3.20
2023-02-08T06:59:00.979Z,3.20
2023-02-08T07:00:01.075Z,3.30
2023-02-08T07:01:01.027Z,3.10
2023-02-08T07:02:01.504Z,3.30
2023-02-08T07:03:01.021Z,3.30
2023-02-08T07:04:01.037Z,3.30
2023-02-08T07:05:01.054Z,3.40
2023-02-08T07:06:05.671Z,3.20
2023-02-08T07:07:01.077Z,3.20
2023-02-08T07:08:01.100Z,3.50
2023-02-08T07:09:01.109Z,3.10
2023-02-08T07:10:01.132Z,3.40
2023-02-08T07:11:01.153Z,3.40
2023-02-08T07:12:01.304Z,3.20
2023-02-08T07:13:01.177Z,3.20
2023-02-08T07:14:01.192Z,3.20
2023-02-08T07:15:01.226Z,3.20
2023-02-08T07:16:01.215Z,3.20
2023-02-08T07:17:01.306Z,3.60
2023-02-08T07:18:01.410Z,3.20
2023-02-08T07:19:01.262Z,3.30
2023-02-08T07:20:01.286Z,3.00
2023-02-08T07:21:01.300Z,3.30
2023-02-08T07:22:01.308Z,3.10
2023-02-08T07:23:01.325Z,3.10
2023-02-08T07:24:01.347Z,3.10
2023-02-08T07:25:01.359Z,3.20
2023-02-08T07:26:01.379Z,3.00
2023-02-08T07:27:01.385Z,3.10
2023-02-08T07:28:01.412Z,3.10
2023-02-08T07:29:01.552Z,3.10
2023-02-08T07:30:01.526Z,3.30
2023-02-08T07:31:01.587Z,3.20
2023-02-08T07:32:01.577Z,3.40
2023-02-08T07:33:01.491Z,3.10
2023-02-08T07:34:01.601Z,3.10
2023-02-08T07:35:01.520Z,3.10
2023-02-08T07:36:01.564Z,3.00
2023-02-08T07:37:01.539Z,2.80
2023-02-08T07:38:01.559Z,2.90
2023-02-08T07:39:01.574Z,3.00
2023-02-08T07:40:01.686Z,3.20
2023-02-08T07:41:01.610Z,3.20
2023-02-08T07:42:01.616Z,2.90
2023-02-08T07:43:01.641Z,3.00
2023-02-08T07:44:01.649Z,3.20
2023-02-08T07:45:01.690Z,3.00
2023-02-08T07:46:01.882Z,2.80
2023-02-08T07:47:01.732Z,3.10
2023-02-08T07:48:01.718Z,2.90
2023-02-08T07:49:01.736Z,3.00
2023-02-08T07:50:01.749Z,3.00
2023-02-08T07:51:01.757Z,2.90
2023-02-08T07:52:01.930Z,2.80
2023-02-08T07:53:01.792Z,3.10
2023-02-08T07:54:01.816Z,2.80
2023-02-08T07:55:01.825Z,3.30
2023-02-08T07:56:01.849Z,3.20
2023-02-08T07:57:03.700Z,2.90
2023-02-08T07:58:01.965Z,3.30
2023-02-08T07:59:01.889Z,2.70
2023-02-08T08:00:01.898Z,2.90
2023-02-08T08:01:15.838Z,2.90
2023-02-08T08:02:02.056Z,2.90
2023-02-08T08:03:01.967Z,2.90
2023-02-08T08:04:02.131Z,3.00
2023-02-08T08:05:01.985Z,3.00
2023-02-08T08:06:02.001Z,3.00
2023-02-08T08:07:02.021Z,2.80
2023-02-08T08:08:02.021Z,3.10
2023-02-08T08:09:02.042Z,3.00
2023-02-08T08:10:02.150Z,2.80
2023-02-08T08:11:03.776Z,3.10
2023-02-08T08:12:02.099Z,2.90
2023-02-08T08:13:02.107Z,2.70
2023-02-08T08:14:02.112Z,2.90
2023-02-08T08:15:02.132Z,2.90
2023-02-08T08:16:02.298Z,2.90
2023-02-08T08:17:02.174Z,2.50
2023-02-08T08:18:02.182Z,2.80
2023-02-08T08:19:02.223Z,2.80
2023-02-08T08:20:02.202Z,2.90
2023-02-08T08:21:02.341Z,2.70
2023-02-08T08:22:02.249Z,2.90
2023-02-08T08:23:02.257Z,2.80
2023-02-08T08:24:02.267Z,2.90
2023-02-08T08:25:02.290Z,2.90
2023-02-08T08:26:02.298Z,2.70
2023-02-08T08:27:04.661Z,2.70
2023-02-08T08:28:02.389Z,2.90
2023-02-08T08:29:02.424Z,2.80
2023-02-08T08:30:02.366Z,2.80
2023-02-08T08:31:02.477Z,2.70
2023-02-08T08:32:02.388Z,2.70
2023-02-08T08:33:02.511Z,2.90
2023-02-08T08:34:02.431Z,2.80
2023-02-08T08:35:02.467Z,2.70
2023-02-08T08:36:02.451Z,3.00
2023-02-08T08:37:02.483Z,2.60
2023-02-08T08:38:02.638Z,2.80
2023-02-08T08:39:02.511Z,2.60
2023-02-08T08:40:02.517Z,2.80
2023-02-08T08:41:02.533Z,2.60
2023-02-08T08:42:02.540Z,3.00
2023-02-08T08:43:02.555Z,2.80
2023-02-08T08:44:02.731Z,2.60
2023-02-08T08:45:02.591Z,2.80
2023-02-08T08:46:02.615Z,2.70
2023-02-08T08:47:02.617Z,2.70
2023-02-08T08:48:02.635Z,2.90
2023-02-08T08:49:02.655Z,2.70
2023-02-08T08:50:02.851Z,2.80
2023-02-08T08:51:02.706Z,2.90
2023-02-08T08:52:02.700Z,2.90
2023-02-08T08:53:02.709Z,3.00
2023-02-08T08:54:02.729Z,2.80
2023-02-08T08:55:02.741Z,2.90
2023-02-08T08:56:02.862Z,2.90
2023-02-08T08:57:02.800Z,2.80
2023-02-08T08:58:02.793Z,2.80
2023-02-08T08:59:02.807Z,2.70
2023-02-08T09:00:02.831Z,2.90
2023-02-08T09:01:02.838Z,2.90
2023-02-08T09:02:03.053Z,2.80
2023-02-08T09:03:02.933Z,2.80
2023-02-08T09:04:02.887Z,2.90
2023-02-08T09:05:02.891Z,2.70
2023-02-08T09:06:02.931Z,2.80
2023-02-08T09:07:02.969Z,2.70
2023-02-08T09:08:03.048Z,2.80
2023-02-08T09:09:02.951Z,2.90
2023-02-08T09:10:02.974Z,2.80
2023-02-08T09:11:02.987Z,2.90
2023-02-08T09:12:02.995Z,2.70
2023-02-08T09:13:03.099Z,2.80
2023-02-08T09:14:04.425Z,2.90
2023-02-08T09:15:03.046Z,2.80
2023-02-08T09:16:03.130Z,3.00
2023-02-08T09:17:03.087Z,2.90
2023-02-08T09:18:03.092Z,3.00
2023-02-08T09:19:03.108Z,3.00
2023-02-08T09:20:04.881Z,3.00
2023-02-08T09:21:03.136Z,3.00
2023-02-08T09:22:03.153Z,3.10
2023-02-08T09:23:03.182Z,3.30
2023-02-08T09:24:03.183Z,2.90
2023-02-08T09:25:03.296Z,3.20
2023-02-08T09:26:03.215Z,3.00
2023-02-08T09:27:03.229Z,2.80
2023-02-08T09:28:03.280Z,3.00
2023-02-08T09:29:03.261Z,3.00
2023-02-08T09:30:03.267Z,2.90
2023-02-08T09:31:03.489Z,2.80
2023-02-08T09:32:03.373Z,2.90
2023-02-08T09:33:03.324Z,3.10
2023-02-08T09:34:03.341Z,3.00
2023-02-08T09:35:03.357Z,2.70
2023-02-08T09:36:03.521Z,2.70
2023-02-08T09:37:03.376Z,3.00
2023-02-08T09:38:03.401Z,3.00
2023-02-08T09:39:03.453Z,2.90
2023-02-08T09:40:03.433Z,2.90
2023-02-08T09:41:03.466Z,3.10
2023-02-08T09:42:03.554Z,2.90
2023-02-08T09:43:03.476Z,2.70
2023-02-08T09:44:03.494Z,2.80
2023-02-08T09:45:03.509Z,2.90
2023-02-08T09:46:03.516Z,2.80
2023-02-08T09:47:03.643Z,3.00
2023-02-08T09:48:03.549Z,2.70
2023-02-08T09:49:03.565Z,2.70
2023-02-08T09:50:03.598Z,2.90
2023-02-08T09:51:03.595Z,2.80
2023-02-08T09:52:03.617Z,2.90
2023-02-08T09:53:03.775Z,2.70
2023-02-08T09:54:03.657Z,2.80
2023-02-08T09:55:03.674Z,2.90
2023-02-08T09:56:03.675Z,2.90
2023-02-08T09:57:03.686Z,2.80
2023-02-08T09:58:03.701Z,2.70
2023-02-08T09:59:03.841Z,2.70
2023-02-08T10:00:03.732Z,2.80
2023-02-08T10:01:05.955Z,2.50
2023-02-08T10:02:03.770Z,2.60
2023-02-08T10:03:03.900Z,2.80
2023-02-08T10:04:03.795Z,2.80
2023-02-08T10:05:03.916Z,2.80
2023-02-08T10:06:03.833Z,2.70
2023-02-08T10:07:03.846Z,2.70
2023-02-08T10:08:03.860Z,2.70
2023-02-08T10:09:03.871Z,2.50
2023-02-08T10:10:03.886Z,2.70
2023-02-08T10:11:04.018Z,2.50
2023-02-08T10:12:03.915Z,2.60
2023-02-08T10:13:03.945Z,2.70
2023-02-08T10:14:03.948Z,2.70
2023-02-08T10:15:03.970Z,2.70
2023-02-08T10:16:04.041Z,2.50
2023-02-08T10:17:04.094Z,2.60
2023-02-08T10:18:04.053Z,2.60
2023-02-08T10:19:04.022Z,2.70
2023-02-08T10:20:04.045Z,2.70
2023-02-08T10:21:04.051Z,2.90
2023-02-08T10:22:04.074Z,2.60
2023-02-08T10:23:04.182Z,2.70
2023-02-08T10:24:04.098Z,2.80
2023-02-08T10:25:04.125Z,2.70
2023-02-08T10:26:04.127Z,2.70
2023-02-08T10:27:04.209Z,2.90
2023-02-08T10:28:04.242Z,2.50
2023-02-08T10:29:04.281Z,2.70
2023-02-08T10:30:04.237Z,2.60
2023-02-08T10:31:04.301Z,2.80
2023-02-08T10:32:04.302Z,2.50
2023-02-08T10:33:04.235Z,2.60
2023-02-08T10:34:05.845Z,2.90
2023-02-08T10:35:04.387Z,2.50
2023-02-08T10:36:04.280Z,2.90
2023-02-08T10:37:04.329Z,2.70
2023-02-08T10:38:04.317Z,2.60
2023-02-08T10:39:04.329Z,2.70
2023-02-08T10:40:04.342Z,2.60
2023-02-08T10:41:04.460Z,2.50
2023-02-08T10:42:04.381Z,2.60
2023-02-08T10:43:04.406Z,2.70
2023-02-08T10:44:04.459Z,2.90
2023-02-08T10:45:12.749Z,3.00
2023-02-08T10:46:04.501Z,3.00
2023-02-08T10:47:04.549Z,2.70
2023-02-08T10:48:04.466Z,2.80
2023-02-08T10:49:04.488Z,2.90
2023-02-08T10:50:04.505Z,2.80
2023-02-08T10:51:04.519Z,2.80
2023-02-08T10:52:04.558Z,2.80
2023-02-08T10:53:04.695Z,2.80
2023-02-08T10:54:04.613Z,3.20
2023-02-08T10:55:04.586Z,2.80
2023-02-08T10:56:04.594Z,2.70
2023-02-08T10:57:04.606Z,3.00
2023-02-08T10:58:04.618Z,2.70
2023-02-08T10:59:04.749Z,3.30
2023-02-08T11:00:04.644Z,3.40
2023-02-08T11:01:06.188Z,3.10
2023-02-08T11:02:04.683Z,3.20
2023-02-08T11:03:04.696Z,3.10
2023-02-08T11:04:04.947Z,3.30
2023-02-08T11:05:04.831Z,3.20
2023-02-08T11:06:04.735Z,3.30
2023-02-08T11:07:04.750Z,3.30
2023-02-08T11:08:04.771Z,3.20
2023-02-08T11:09:04.788Z,3.10
2023-02-08T11:10:04.803Z,3.10
2023-02-08T11:11:04.921Z,3.30
2023-02-08T11:12:04.833Z,3.50
2023-02-08T11:13:04.841Z,3.10
2023-02-08T11:14:04.865Z,3.20
2023-02-08T11:15:04.903Z,3.30
2023-02-08T11:16:04.887Z,3.00
2023-02-08T11:17:05.010Z,3.50
2023-02-08T11:18:04.928Z,3.30
2023-02-08T11:19:04.940Z,3.20
2023-02-08T11:20:04.950Z,3.30
2023-02-08T11:21:04.972Z,3.30
2023-02-08T11:22:04.982Z,3.30
2023-02-08T11:23:05.103Z,3.50
2023-02-08T11:24:05.019Z,3.30
2023-02-08T11:25:05.097Z,3.20
2023-02-08T11:26:05.056Z,3.20
2023-02-08T11:27:05.056Z,3.20
2023-02-08T11:28:05.120Z,3.50
2023-02-08T11:29:05.208Z,3.30
2023-02-08T11:30:05.116Z,3.10
2023-02-08T11:31:05.148Z,3.20
2023-02-08T11:32:05.172Z,2.90
2023-02-08T11:33:05.150Z,3.30
2023-02-08T11:34:05.267Z,3.10
2023-02-08T11:35:05.190Z,3.10
2023-02-08T11:36:05.206Z,3.50
2023-02-08T11:37:05.222Z,3.50
2023-02-08T11:38:05.232Z,3.50
2023-02-08T11:39:05.258Z,3.30
2023-02-08T11:40:05.356Z,3.50
2023-02-08T11:41:05.280Z,3.70
2023-02-08T11:42:05.289Z,3.30
2023-02-08T11:43:05.307Z,3.50
2023-02-08T11:44:05.321Z,3.30
2023-02-08T11:45:05.337Z,3.40
2023-02-08T11:46:05.508Z,3.50
2023-02-08T11:47:05.396Z,3.40
2023-02-08T11:48:05.391Z,3.20
2023-02-08T11:49:05.406Z,3.60
2023-02-08T11:50:05.429Z,3.50
2023-02-08T11:51:05.425Z,3.20
2023-02-08T11:52:05.447Z,3.30
2023-02-08T11:53:06.483Z,3.70
2023-02-08T11:54:05.470Z,3.20
2023-02-08T11:55:05.488Z,3.50
2023-02-08T11:56:05.531Z,3.60
2023-02-08T11:57:05.516Z,3.30
2023-02-08T11:58:05.544Z,3.30
2023-02-08T11:59:05.554Z,3.50
2023-02-08T12:00:05.570Z,3.30
2023-02-08T12:01:05.586Z,3.30
2023-02-08T12:02:05.644Z,3.10
2023-02-08T12:03:05.664Z,3.40
2023-02-08T12:04:05.724Z,3.60
2023-02-08T12:05:05.651Z,3.50
2023-02-08T12:06:05.667Z,3.40
2023-02-08T12:07:05.675Z,3.20
2023-02-08T12:08:05.706Z,3.30
2023-02-08T12:09:05.703Z,3.40
2023-02-08T12:10:05.719Z,3.40
2023-02-08T12:11:05.741Z,3.60
2023-02-08T12:12:05.754Z,3.50
2023-02-08T12:13:05.771Z,3.70
2023-02-08T12:14:05.777Z,3.70
2023-02-08T12:15:05.816Z,3.60
2023-02-08T12:16:06.160Z,3.10
2023-02-08T12:17:05.831Z,3.30
2023-02-08T12:18:05.845Z,3.30
2023-02-08T12:19:05.888Z,3.30
2023-02-08T12:20:05.906Z,3.40
2023-02-08T12:21:05.888Z,3.30
2023-02-08T12:22:05.903Z,3.70
2023-02-08T12:23:05.915Z,3.60
2023-02-08T12:24:05.942Z,3.40
2023-02-08T12:25:05.948Z,3.70
2023-02-08T12:26:05.957Z,3.60
2023-02-08T12:27:05.985Z,3.80
2023-02-08T12:28:06.028Z,3.80
2023-02-08T12:29:06.015Z,4.00
2023-02-08T12:30:06.020Z,3.70
2023-02-08T12:31:06.132Z,3.60
2023-02-08T12:32:06.054Z,3.80
2023-02-08T12:33:06.066Z,3.80
2023-02-08T12:34:06.096Z,3.70
2023-02-08T12:35:06.428Z,4.00
2023-02-08T12:36:06.219Z,3.60
2023-02-08T12:37:06.134Z,3.50
2023-02-08T12:38:06.191Z,3.70
2023-02-08T12:39:19.605Z,3.90
2023-02-08T12:40:06.213Z,3.70
2023-02-08T12:41:06.189Z,3.60
2023-02-08T12:42:06.206Z,3.70
2023-02-08T12:43:06.225Z,3.60
2023-02-08T12:44:06.260Z,3.60
2023-02-08T12:45:06.251Z,3.50
2023-02-08T12:46:06.305Z,3.40
2023-02-08T12:47:06.286Z,3.50
2023-02-08T12:48:06.301Z,3.50
2023-02-08T12:49:06.316Z,3.50
2023-02-08T12:50:06.339Z,3.50
2023-02-08T12:51:06.366Z,3.60
2023-02-08T12:52:08.225Z,3.80
2023-02-08T12:53:06.377Z,3.50
2023-02-08T12:54:06.383Z,3.90
2023-02-08T12:55:06.413Z,3.50
2023-02-08T12:56:06.418Z,3.50
2023-02-08T12:57:06.431Z,3.30
2023-02-08T12:58:06.453Z,3.80
2023-02-08T12:59:13.543Z,3.50
2023-02-08T13:00:06.489Z,3.40
2023-02-08T13:01:06.495Z,3.40
2023-02-08T13:02:06.514Z,3.90
2023-02-08T13:03:06.530Z,3.80
2023-02-08T13:04:06.550Z,3.90
2023-02-08T13:05:06.588Z,3.90
2023-02-08T13:06:06.995Z,3.90
2023-02-08T13:07:06.606Z,4.00
2023-02-08T13:08:06.607Z,3.70
2023-02-08T13:09:06.624Z,3.80
2023-02-08T13:10:06.635Z,3.80
2023-02-08T13:11:19.095Z,3.70
2023-02-08T13:12:06.680Z,3.70
2023-02-08T13:13:06.680Z,3.70
2023-02-08T13:14:06.705Z,3.80
2023-02-08T13:15:06.719Z,3.70
2023-02-08T13:16:06.759Z,3.60
2023-02-08T13:17:06.751Z,3.50
2023-02-08T13:18:06.770Z,3.80
2023-02-08T13:19:06.772Z,3.80